Eau Galle, Wisconsin
Current Conditions -  °F | °C
As of 5:35 AM on Saturday 22 Nov 2014 (Local Time) from KLUM Reporting Station
Haze Haze  
Wind Chill: 28°   Ceiling: 800
Heat Index: 35°   Visibility: 3mi
Dew Point: 32°   Wind: 10mph
Humidity: 89%   Direction: 190°S
Pressure: 29.82"   Gusts: 18mph
Location:  44.69°N, 92.01°W
Report Text: KLUM 221135Z AUTO 19009G16KT 3SM BR OVC008 02/00 A2982 RMK AO2 T00180001
Loading
Personal Weather Stations






























Interactive Weather Map New forecast layout! Learn more

10-Day Weather Forecast

Advertisements
Track Severe Weather on mobile